sensor_id;sensor_type;location;lat;lon;timestamp;temperature;humidity
54178;DHT22;40085;53.004;6.770;2022-07-17T00:02:06;12.60;99.90
54178;DHT22;40085;53.004;6.770;2022-07-17T00:04:31;11.90;99.90
54178;DHT22;40085;53.004;6.770;2022-07-17T00:06:57;12.10;99.90
54178;DHT22;40085;53.004;6.770;2022-07-17T00:09:23;12.40;99.90
54178;DHT22;40085;53.004;6.770;2022-07-17T00:11:49;11.90;99.90
54178;DHT22;40085;53.004;6.770;2022-07-17T00:14:14;12.10;99.90
54178;DHT22;40085;53.004;6.770;2022-07-17T00:16:40;12.00;99.90
54178;DHT22;40085;53.004;6.770;2022-07-17T00:19:06;12.00;99.90
54178;DHT22;40085;53.004;6.770;2022-07-17T00:21:32;12.00;99.90
54178;DHT22;40085;53.004;6.770;2022-07-17T00:23:58;12.00;99.90
54178;DHT22;40085;53.004;6.770;2022-07-17T00:26:24;12.00;99.90
54178;DHT22;40085;53.004;6.770;2022-07-17T00:28:50;12.20;99.90
54178;DHT22;40085;53.004;6.770;2022-07-17T00:31:15;11.80;99.90
54178;DHT22;40085;53.004;6.770;2022-07-17T00:33:41;12.20;99.90
54178;DHT22;40085;53.004;6.770;2022-07-17T00:36:07;11.80;99.90
54178;DHT22;40085;53.004;6.770;2022-07-17T00:38:33;12.10;99.90
54178;DHT22;40085;53.004;6.770;2022-07-17T00:40:58;11.70;99.90
54178;DHT22;40085;53.004;6.770;2022-07-17T00:43:25;11.80;99.90
54178;DHT22;40085;53.004;6.770;2022-07-17T00:46:01;12.00;99.90
54178;DHT22;40085;53.004;6.770;2022-07-17T00:48:28;11.60;99.90
54178;DHT22;40085;53.004;6.770;2022-07-17T00:50:54;11.60;99.90
54178;DHT22;40085;53.004;6.770;2022-07-17T00:53:21;12.10;99.90
54178;DHT22;40085;53.004;6.770;2022-07-17T00:55:48;11.70;99.90
54178;DHT22;40085;53.004;6.770;2022-07-17T00:58:19;12.00;99.90
54178;DHT22;40085;53.004;6.770;2022-07-17T01:00:46;11.60;99.90
54178;DHT22;40085;53.004;6.770;2022-07-17T01:03:13;11.50;99.90
54178;DHT22;40085;53.004;6.770;2022-07-17T01:05:40;12.00;99.90
54178;DHT22;40085;53.004;6.770;2022-07-17T01:08:06;11.60;99.90
54178;DHT22;40085;53.004;6.770;2022-07-17T01:10:31;11.80;99.90
54178;DHT22;40085;53.004;6.770;2022-07-17T01:12:57;11.40;99.90
54178;DHT22;40085;53.004;6.770;2022-07-17T01:15:23;11.50;99.90
54178;DHT22;40085;53.004;6.770;2022-07-17T01:17:49;11.80;99.90
54178;DHT22;40085;53.004;6.770;2022-07-17T01:20:15;11.80;99.90
54178;DHT22;40085;53.004;6.770;2022-07-17T01:22:46;11.50;99.90
54178;DHT22;40085;53.004;6.770;2022-07-17T01:25:12;11.60;99.90
54178;DHT22;40085;53.004;6.770;2022-07-17T01:27:39;11.30;99.90
54178;DHT22;40085;53.004;6.770;2022-07-17T01:30:05;11.60;99.90
54178;DHT22;40085;53.004;6.770;2022-07-17T01:32:35;11.30;99.90
54178;DHT22;40085;53.004;6.770;2022-07-17T01:35:03;11.20;99.90
54178;DHT22;40085;53.004;6.770;2022-07-17T01:37:29;11.30;99.90
54178;DHT22;40085;53.004;6.770;2022-07-17T01:39:55;11.50;99.90
54178;DHT22;40085;53.004;6.770;2022-07-17T01:42:22;11.20;99.90
54178;DHT22;40085;53.004;6.770;2022-07-17T01:44:49;11.20;99.90
54178;DHT22;40085;53.004;6.770;2022-07-17T01:47:14;11.10;99.90
54178;DHT22;40085;53.004;6.770;2022-07-17T01:49:48;11.60;99.90
54178;DHT22;40085;53.004;6.770;2022-07-17T01:52:14;11.20;99.90
54178;DHT22;40085;53.004;6.770;2022-07-17T01:54:41;11.20;99.90
54178;DHT22;40085;53.004;6.770;2022-07-17T01:57:08;11.10;99.90
54178;DHT22;40085;53.004;6.770;2022-07-17T01:59:35;11.20;99.90
54178;DHT22;40085;53.004;6.770;2022-07-17T02:02:01;11.00;99.90
54178;DHT22;40085;53.004;6.770;2022-07-17T02:04:27;11.20;99.90
54178;DHT22;40085;53.004;6.770;2022-07-17T02:06:54;11.20;99.90
54178;DHT22;40085;53.004;6.770;2022-07-17T02:09:21;11.20;99.90
54178;DHT22;40085;53.004;6.770;2022-07-17T02:11:47;11.60;99.90
54178;DHT22;40085;53.004;6.770;2022-07-17T02:14:12;11.10;99.90
54178;DHT22;40085;53.004;6.770;2022-07-17T02:16:38;11.10;99.90
54178;DHT22;40085;53.004;6.770;2022-07-17T02:19:04;11.20;99.90
54178;DHT22;40085;53.004;6.770;2022-07-17T02:21:30;11.20;99.90
54178;DHT22;40085;53.004;6.770;2022-07-17T02:23:56;11.20;99.90
54178;DHT22;40085;53.004;6.770;2022-07-17T02:26:22;11.20;99.90
54178;DHT22;40085;53.004;6.770;2022-07-17T02:28:47;11.40;99.90
54178;DHT22;40085;53.004;6.770;2022-07-17T02:31:13;11.60;99.90
54178;DHT22;40085;53.004;6.770;2022-07-17T02:33:39;11.10;99.90
54178;DHT22;40085;53.004;6.770;2022-07-17T02:36:05;11.20;99.90
54178;DHT22;40085;53.004;6.770;2022-07-17T02:38:31;11.20;99.90
54178;DHT22;40085;53.004;6.770;2022-07-17T02:40:57;11.20;99.90
54178;DHT22;40085;53.004;6.770;2022-07-17T02:43:23;11.20;99.90
54178;DHT22;40085;53.004;6.770;2022-07-17T02:45:48;11.20;99.90
54178;DHT22;40085;53.004;6.770;2022-07-17T02:48:14;11.10;99.90
54178;DHT22;40085;53.004;6.770;2022-07-17T02:50:40;12.40;99.90
54178;DHT22;40085;53.004;6.770;2022-07-17T02:53:05;11.30;99.90
54178;DHT22;40085;53.004;6.770;2022-07-17T02:55:31;10.90;99.90
54178;DHT22;40085;53.004;6.770;2022-07-17T02:57:57;11.00;99.90
54178;DHT22;40085;53.004;6.770;2022-07-17T03:00:23;10.90;99.90
54178;DHT22;40085;53.004;6.770;2022-07-17T03:02:49;10.90;99.90
54178;DHT22;40085;53.004;6.770;2022-07-17T03:05:15;10.80;99.90
54178;DHT22;40085;53.004;6.770;2022-07-17T03:07:42;10.50;99.90
54178;DHT22;40085;53.004;6.770;2022-07-17T03:10:09;10.90;99.90
54178;DHT22;40085;53.004;6.770;2022-07-17T03:12:36;10.60;99.90
54178;DHT22;40085;53.004;6.770;2022-07-17T03:15:03;10.80;99.90
54178;DHT22;40085;53.004;6.770;2022-07-17T03:17:29;10.90;99.90
54178;DHT22;40085;53.004;6.770;2022-07-17T03:19:54;10.80;99.90
54178;DHT22;40085;53.004;6.770;2022-07-17T03:22:20;10.70;99.90
54178;DHT22;40085;53.004;6.770;2022-07-17T03:24:46;10.80;99.90
54178;DHT22;40085;53.004;6.770;2022-07-17T03:27:11;10.80;99.90
54178;DHT22;40085;53.004;6.770;2022-07-17T03:29:37;10.90;99.90
54178;DHT22;40085;53.004;6.770;2022-07-17T03:32:03;10.70;99.90
54178;DHT22;40085;53.004;6.770;2022-07-17T03:34:28;10.60;99.90
54178;DHT22;40085;53.004;6.770;2022-07-17T03:36:54;11.20;99.90
54178;DHT22;40085;53.004;6.770;2022-07-17T03:39:20;10.60;99.90
54178;DHT22;40085;53.004;6.770;2022-07-17T03:41:45;10.60;99.90
54178;DHT22;40085;53.004;6.770;2022-07-17T03:44:11;10.60;99.90
54178;DHT22;40085;53.004;6.770;2022-07-17T03:46:37;10.20;99.90
54178;DHT22;40085;53.004;6.770;2022-07-17T03:49:02;10.60;99.90
54178;DHT22;40085;53.004;6.770;2022-07-17T03:51:28;10.60;99.90
54178;DHT22;40085;53.004;6.770;2022-07-17T03:53:54;10.60;99.90
54178;DHT22;40085;53.004;6.770;2022-07-17T03:56:20;10.60;99.90
54178;DHT22;40085;53.004;6.770;2022-07-17T03:58:45;10.50;99.90
54178;DHT22;40085;53.004;6.770;2022-07-17T04:01:11;10.60;99.90
54178;DHT22;40085;53.004;6.770;2022-07-17T04:03:37;10.40;99.90
54178;DHT22;40085;53.004;6.770;2022-07-17T04:06:03;10.50;99.90
54178;DHT22;40085;53.004;6.770;2022-07-17T04:08:29;10.60;99.90
54178;DHT22;40085;53.004;6.770;2022-07-17T04:10:55;10.50;99.90
54178;DHT22;40085;53.004;6.770;2022-07-17T04:13:21;10.60;99.90
54178;DHT22;40085;53.004;6.770;2022-07-17T04:15:46;10.40;99.90
54178;DHT22;40085;53.004;6.770;2022-07-17T04:18:15;10.80;99.90
54178;DHT22;40085;53.004;6.770;2022-07-17T04:20:41;10.80;99.90
54178;DHT22;40085;53.004;6.770;2022-07-17T04:23:07;10.90;99.90
54178;DHT22;40085;53.004;6.770;2022-07-17T04:25:34;10.90;99.90
54178;DHT22;40085;53.004;6.770;2022-07-17T04:28:00;10.90;99.90
54178;DHT22;40085;53.004;6.770;2022-07-17T04:30:26;11.10;99.90
54178;DHT22;40085;53.004;6.770;2022-07-17T04:32:52;11.00;99.90
54178;DHT22;40085;53.004;6.770;2022-07-17T04:35:18;11.10;99.90
54178;DHT22;40085;53.004;6.770;2022-07-17T04:37:44;11.20;99.90
54178;DHT22;40085;53.004;6.770;2022-07-17T04:40:10;11.20;99.90
54178;DHT22;40085;53.004;6.770;2022-07-17T04:42:37;11.30;99.90
54178;DHT22;40085;53.004;6.770;2022-07-17T04:45:03;11.30;99.90
54178;DHT22;40085;53.004;6.770;2022-07-17T04:47:29;11.30;99.90
54178;DHT22;40085;53.004;6.770;2022-07-17T04:49:54;11.30;99.90
54178;DHT22;40085;53.004;6.770;2022-07-17T04:52:20;11.40;99.90
54178;DHT22;40085;53.004;6.770;2022-07-17T04:54:46;11.40;99.90
54178;DHT22;40085;53.004;6.770;2022-07-17T04:57:11;11.50;99.90
54178;DHT22;40085;53.004;6.770;2022-07-17T04:59:37;11.50;99.90
54178;DHT22;40085;53.004;6.770;2022-07-17T05:02:03;11.60;99.90
54178;DHT22;40085;53.004;6.770;2022-07-17T05:04:29;11.60;99.90
54178;DHT22;40085;53.004;6.770;2022-07-17T05:06:55;11.70;99.90
54178;DHT22;40085;53.004;6.770;2022-07-17T05:09:21;11.70;99.90
54178;DHT22;40085;53.004;6.770;2022-07-17T05:11:47;11.80;99.90
54178;DHT22;40085;53.004;6.770;2022-07-17T05:14:13;12.20;99.90
54178;DHT22;40085;53.004;6.770;2022-07-17T05:16:39;11.90;99.90
54178;DHT22;40085;53.004;6.770;2022-07-17T05:19:04;11.90;99.90
54178;DHT22;40085;53.004;6.770;2022-07-17T05:21:30;12.00;99.90
54178;DHT22;40085;53.004;6.770;2022-07-17T05:23:56;12.10;99.90
54178;DHT22;40085;53.004;6.770;2022-07-17T05:26:22;12.30;99.90
54178;DHT22;40085;53.004;6.770;2022-07-17T05:28:47;12.30;99.90
54178;DHT22;40085;53.004;6.770;2022-07-17T05:31:13;12.30;99.90
54178;DHT22;40085;53.004;6.770;2022-07-17T05:33:38;12.40;99.90
54178;DHT22;40085;53.004;6.770;2022-07-17T05:36:04;12.60;99.90
54178;DHT22;40085;53.004;6.770;2022-07-17T05:38:30;13.00;99.90
54178;DHT22;40085;53.004;6.770;2022-07-17T05:40:56;12.60;99.90
54178;DHT22;40085;53.004;6.770;2022-07-17T05:43:21;12.90;99.90
54178;DHT22;40085;53.004;6.770;2022-07-17T05:45:47;12.80;99.90
54178;DHT22;40085;53.004;6.770;2022-07-17T05:48:13;12.70;99.90
54178;DHT22;40085;53.004;6.770;2022-07-17T05:50:38;12.80;99.90
54178;DHT22;40085;53.004;6.770;2022-07-17T05:53:04;13.30;99.90
54178;DHT22;40085;53.004;6.770;2022-07-17T05:55:30;13.30;99.90
54178;DHT22;40085;53.004;6.770;2022-07-17T05:57:56;13.10;99.90
54178;DHT22;40085;53.004;6.770;2022-07-17T06:00:22;13.00;99.90
54178;DHT22;40085;53.004;6.770;2022-07-17T06:02:47;13.50;99.90
54178;DHT22;40085;53.004;6.770;2022-07-17T06:05:13;13.20;99.90
54178;DHT22;40085;53.004;6.770;2022-07-17T06:07:39;13.20;99.90
54178;DHT22;40085;53.004;6.770;2022-07-17T06:10:05;13.30;99.90
54178;DHT22;40085;53.004;6.770;2022-07-17T06:12:31;13.20;99.90
54178;DHT22;40085;53.004;6.770;2022-07-17T06:14:57;13.40;99.90
54178;DHT22;40085;53.004;6.770;2022-07-17T06:17:22;13.40;99.90
54178;DHT22;40085;53.004;6.770;2022-07-17T06:19:48;13.60;99.90
54178;DHT22;40085;53.004;6.770;2022-07-17T06:22:20;13.70;99.90
54178;DHT22;40085;53.004;6.770;2022-07-17T06:24:47;14.00;99.90
54178;DHT22;40085;53.004;6.770;2022-07-17T06:27:13;14.10;99.90
54178;DHT22;40085;53.004;6.770;2022-07-17T06:29:39;14.30;99.90
54178;DHT22;40085;53.004;6.770;2022-07-17T06:32:05;14.40;99.90
54178;DHT22;40085;53.004;6.770;2022-07-17T06:34:31;14.70;99.90
54178;DHT22;40085;53.004;6.770;2022-07-17T06:36:57;14.80;99.90
54178;DHT22;40085;53.004;6.770;2022-07-17T06:39:23;15.00;99.90
54178;DHT22;40085;53.004;6.770;2022-07-17T06:41:48;15.10;99.90
54178;DHT22;40085;53.004;6.770;2022-07-17T06:44:14;15.30;99.90
54178;DHT22;40085;53.004;6.770;2022-07-17T06:46:40;15.50;99.90
54178;DHT22;40085;53.004;6.770;2022-07-17T06:49:05;15.60;99.90
54178;DHT22;40085;53.004;6.770;2022-07-17T06:51:31;15.70;99.90
54178;DHT22;40085;53.004;6.770;2022-07-17T06:53:57;15.70;99.90
54178;DHT22;40085;53.004;6.770;2022-07-17T06:56:22;15.80;99.90
54178;DHT22;40085;53.004;6.770;2022-07-17T06:58:48;15.90;99.90
54178;DHT22;40085;53.004;6.770;2022-07-17T07:01:14;15.90;99.90
54178;DHT22;40085;53.004;6.770;2022-07-17T07:03:39;16.10;99.90
54178;DHT22;40085;53.004;6.770;2022-07-17T07:06:06;16.20;99.90
54178;DHT22;40085;53.004;6.770;2022-07-17T07:08:33;16.30;99.90
54178;DHT22;40085;53.004;6.770;2022-07-17T07:11:00;16.20;99.90
54178;DHT22;40085;53.004;6.770;2022-07-17T07:13:25;16.30;99.90
54178;DHT22;40085;53.004;6.770;2022-07-17T07:15:51;16.30;99.90
54178;DHT22;40085;53.004;6.770;2022-07-17T07:18:17;16.30;99.90
54178;DHT22;40085;53.004;6.770;2022-07-17T07:20:43;16.30;99.90
54178;DHT22;40085;53.004;6.770;2022-07-17T07:23:09;16.50;99.90
54178;DHT22;40085;53.004;6.770;2022-07-17T07:25:35;16.40;99.90
54178;DHT22;40085;53.004;6.770;2022-07-17T07:28:02;16.40;99.90
54178;DHT22;40085;53.004;6.770;2022-07-17T07:30:27;16.40;99.90
54178;DHT22;40085;53.004;6.770;2022-07-17T07:32:53;16.40;99.90
54178;DHT22;40085;53.004;6.770;2022-07-17T07:35:19;16.50;99.90
54178;DHT22;40085;53.004;6.770;2022-07-17T07:37:44;16.50;99.90
54178;DHT22;40085;53.004;6.770;2022-07-17T07:40:11;16.70;99.90
54178;DHT22;40085;53.004;6.770;2022-07-17T07:42:38;16.60;99.90
54178;DHT22;40085;53.004;6.770;2022-07-17T07:45:04;16.60;99.90
54178;DHT22;40085;53.004;6.770;2022-07-17T07:47:30;16.70;99.90
54178;DHT22;40085;53.004;6.770;2022-07-17T07:49:55;16.80;99.90
54178;DHT22;40085;53.004;6.770;2022-07-17T07:52:21;16.80;99.90
54178;DHT22;40085;53.004;6.770;2022-07-17T07:54:47;16.90;99.90
54178;DHT22;40085;53.004;6.770;2022-07-17T07:59:38;17.00;99.90
54178;DHT22;40085;53.004;6.770;2022-07-17T08:02:04;17.20;99.90
54178;DHT22;40085;53.004;6.770;2022-07-17T08:04:30;17.30;99.90
54178;DHT22;40085;53.004;6.770;2022-07-17T08:06:56;17.20;99.90
54178;DHT22;40085;53.004;6.770;2022-07-17T08:09:22;17.20;99.90
54178;DHT22;40085;53.004;6.770;2022-07-17T08:11:48;17.30;99.90
54178;DHT22;40085;53.004;6.770;2022-07-17T08:14:14;17.40;99.90
54178;DHT22;40085;53.004;6.770;2022-07-17T08:16:40;17.40;99.90
54178;DHT22;40085;53.004;6.770;2022-07-17T08:19:05;17.40;99.90
54178;DHT22;40085;53.004;6.770;2022-07-17T08:21:31;17.40;99.90
54178;DHT22;40085;53.004;6.770;2022-07-17T08:23:57;17.60;99.90
54178;DHT22;40085;53.004;6.770;2022-07-17T08:26:23;17.50;99.90
54178;DHT22;40085;53.004;6.770;2022-07-17T08:28:48;17.60;99.90
54178;DHT22;40085;53.004;6.770;2022-07-17T08:31:14;17.60;99.90
54178;DHT22;40085;53.004;6.770;2022-07-17T08:33:40;17.70;99.90
54178;DHT22;40085;53.004;6.770;2022-07-17T08:36:06;17.40;99.90
54178;DHT22;40085;53.004;6.770;2022-07-17T08:38:32;17.40;99.90
54178;DHT22;40085;53.004;6.770;2022-07-17T08:40:57;17.50;99.90
54178;DHT22;40085;53.004;6.770;2022-07-17T08:43:24;17.70;99.90
54178;DHT22;40085;53.004;6.770;2022-07-17T08:45:51;17.80;99.90
54178;DHT22;40085;53.004;6.770;2022-07-17T08:48:18;18.00;99.90
54178;DHT22;40085;53.004;6.770;2022-07-17T08:50:45;17.90;99.90
54178;DHT22;40085;53.004;6.770;2022-07-17T08:53:11;18.10;99.90
54178;DHT22;40085;53.004;6.770;2022-07-17T08:55:37;18.50;99.90
54178;DHT22;40085;53.004;6.770;2022-07-17T08:58:03;18.50;99.90
54178;DHT22;40085;53.004;6.770;2022-07-17T09:00:32;18.60;99.90
54178;DHT22;40085;53.004;6.770;2022-07-17T09:03:02;18.90;99.90
54178;DHT22;40085;53.004;6.770;2022-07-17T09:05:39;18.80;99.90
54178;DHT22;40085;53.004;6.770;2022-07-17T09:08:07;18.80;99.90
54178;DHT22;40085;53.004;6.770;2022-07-17T09:10:37;18.80;99.90
54178;DHT22;40085;53.004;6.770;2022-07-17T09:13:42;18.90;99.90
54178;DHT22;40085;53.004;6.770;2022-07-17T09:16:11;19.10;99.90
54178;DHT22;40085;53.004;6.770;2022-07-17T09:18:48;19.10;99.90
54178;DHT22;40085;53.004;6.770;2022-07-17T09:21:24;19.20;99.90
54178;DHT22;40085;53.004;6.770;2022-07-17T09:24:05;19.20;99.90
54178;DHT22;40085;53.004;6.770;2022-07-17T09:26:33;19.30;99.90
54178;DHT22;40085;53.004;6.770;2022-07-17T09:29:03;19.20;99.90
54178;DHT22;40085;53.004;6.770;2022-07-17T09:31:31;19.50;99.90
54178;DHT22;40085;53.004;6.770;2022-07-17T09:33:58;19.60;99.90
54178;DHT22;40085;53.004;6.770;2022-07-17T09:36:24;19.40;99.90
54178;DHT22;40085;53.004;6.770;2022-07-17T09:38:55;19.50;99.90
54178;DHT22;40085;53.004;6.770;2022-07-17T09:41:22;19.40;99.90
54178;DHT22;40085;53.004;6.770;2022-07-17T09:43:50;19.40;99.90
54178;DHT22;40085;53.004;6.770;2022-07-17T09:46:22;19.50;99.90
54178;DHT22;40085;53.004;6.770;2022-07-17T09:49:03;19.80;99.90
54178;DHT22;40085;53.004;6.770;2022-07-17T09:51:31;19.80;99.90
54178;DHT22;40085;53.004;6.770;2022-07-17T09:54:02;20.00;99.90
54178;DHT22;40085;53.004;6.770;2022-07-17T09:56:33;20.10;99.90
54178;DHT22;40085;53.004;6.770;2022-07-17T09:59:03;20.10;99.90
54178;DHT22;40085;53.004;6.770;2022-07-17T10:01:30;20.20;99.90
54178;DHT22;40085;53.004;6.770;2022-07-17T10:03:56;20.30;99.90
54178;DHT22;40085;53.004;6.770;2022-07-17T10:06:23;20.30;99.90
54178;DHT22;40085;53.004;6.770;2022-07-17T10:08:49;20.40;99.90
54178;DHT22;40085;53.004;6.770;2022-07-17T10:11:19;20.40;99.90
54178;DHT22;40085;53.004;6.770;2022-07-17T10:13:46;20.30;99.90
54178;DHT22;40085;53.004;6.770;2022-07-17T10:16:13;20.30;99.90
54178;DHT22;40085;53.004;6.770;2022-07-17T10:18:44;20.30;99.90
54178;DHT22;40085;53.004;6.770;2022-07-17T10:21:18;20.30;99.90
54178;DHT22;40085;53.004;6.770;2022-07-17T10:24:08;20.40;99.90
54178;DHT22;40085;53.004;6.770;2022-07-17T10:26:40;20.50;99.90
54178;DHT22;40085;53.004;6.770;2022-07-17T12:03:32;21.90;99.90
54178;DHT22;40085;53.004;6.770;2022-07-17T12:05:58;21.90;99.90
54178;DHT22;40085;53.004;6.770;2022-07-17T12:08:24;21.90;99.90
54178;DHT22;40085;53.004;6.770;2022-07-17T12:11:03;22.00;99.90
54178;DHT22;40085;53.004;6.770;2022-07-17T12:13:43;22.00;99.90
54178;DHT22;40085;53.004;6.770;2022-07-17T12:16:30;22.00;99.90
54178;DHT22;40085;53.004;6.770;2022-07-17T12:21:32;22.20;99.90
54178;DHT22;40085;53.004;6.770;2022-07-17T12:24:06;22.30;99.90
54178;DHT22;40085;53.004;6.770;2022-07-17T12:26:32;22.30;99.90
54178;DHT22;40085;53.004;6.770;2022-07-17T12:28:59;22.40;99.90
54178;DHT22;40085;53.004;6.770;2022-07-17T12:31:25;22.40;99.90
54178;DHT22;40085;53.004;6.770;2022-07-17T12:33:54;22.60;99.90
54178;DHT22;40085;53.004;6.770;2022-07-17T12:36:22;22.70;99.90
54178;DHT22;40085;53.004;6.770;2022-07-17T12:38:48;22.80;99.90
54178;DHT22;40085;53.004;6.770;2022-07-17T12:41:13;22.60;99.90
54178;DHT22;40085;53.004;6.770;2022-07-17T12:43:39;22.70;99.90
54178;DHT22;40085;53.004;6.770;2022-07-17T12:46:05;22.70;99.90
54178;DHT22;40085;53.004;6.770;2022-07-17T12:48:31;22.80;99.90
54178;DHT22;40085;53.004;6.770;2022-07-17T12:50:57;22.90;99.90
54178;DHT22;40085;53.004;6.770;2022-07-17T12:53:23;22.90;99.90
54178;DHT22;40085;53.004;6.770;2022-07-17T12:55:48;22.70;99.90
54178;DHT22;40085;53.004;6.770;2022-07-17T12:58:14;22.80;99.90
54178;DHT22;40085;53.004;6.770;2022-07-17T13:00:40;22.80;99.90
54178;DHT22;40085;53.004;6.770;2022-07-17T13:03:06;22.80;99.90
54178;DHT22;40085;53.004;6.770;2022-07-17T13:05:31;22.90;99.90
54178;DHT22;40085;53.004;6.770;2022-07-17T13:07:57;22.80;99.90
54178;DHT22;40085;53.004;6.770;2022-07-17T13:10:23;22.90;99.90
54178;DHT22;40085;53.004;6.770;2022-07-17T13:12:49;23.00;99.90
54178;DHT22;40085;53.004;6.770;2022-07-17T13:15:15;23.10;99.90
54178;DHT22;40085;53.004;6.770;2022-07-17T14:08:54;24.20;99.90
54178;DHT22;40085;53.004;6.770;2022-07-17T14:11:20;24.20;99.90
54178;DHT22;40085;53.004;6.770;2022-07-17T14:13:46;24.20;99.90
54178;DHT22;40085;53.004;6.770;2022-07-17T14:16:11;24.30;99.90
54178;DHT22;40085;53.004;6.770;2022-07-17T14:18:37;24.30;99.90
54178;DHT22;40085;53.004;6.770;2022-07-17T14:21:23;24.30;99.90
54178;DHT22;40085;53.004;6.770;2022-07-17T14:23:49;24.20;99.90
54178;DHT22;40085;53.004;6.770;2022-07-17T14:26:15;24.30;99.10
54178;DHT22;40085;53.004;6.770;2022-07-17T14:28:40;24.30;99.80
54178;DHT22;40085;53.004;6.770;2022-07-17T14:31:06;24.20;99.30
54178;DHT22;40085;53.004;6.770;2022-07-17T14:33:32;24.20;99.60
54178;DHT22;40085;53.004;6.770;2022-07-17T14:35:57;24.20;99.90
54178;DHT22;40085;53.004;6.770;2022-07-17T14:38:23;24.40;99.50
54178;DHT22;40085;53.004;6.770;2022-07-17T14:40:49;24.40;99.50
54178;DHT22;40085;53.004;6.770;2022-07-17T14:43:14;24.40;99.10
54178;DHT22;40085;53.004;6.770;2022-07-17T14:45:40;24.60;99.80
54178;DHT22;40085;53.004;6.770;2022-07-17T14:48:06;24.70;99.50
54178;DHT22;40085;53.004;6.770;2022-07-17T14:50:31;24.90;99.80
54178;DHT22;40085;53.004;6.770;2022-07-17T16:20:43;26.80;97.30
54178;DHT22;40085;53.004;6.770;2022-07-17T16:23:09;27.00;97.30
54178;DHT22;40085;53.004;6.770;2022-07-17T16:25:35;27.30;97.10
54178;DHT22;40085;53.004;6.770;2022-07-17T16:28:00;27.40;96.00
54178;DHT22;40085;53.004;6.770;2022-07-17T16:30:26;28.10;96.90
54178;DHT22;40085;53.004;6.770;2022-07-17T16:32:52;28.20;96.30
54178;DHT22;40085;53.004;6.770;2022-07-17T16:35:18;28.80;95.60
54178;DHT22;40085;53.004;6.770;2022-07-17T16:37:43;29.10;94.70
54178;DHT22;40085;53.004;6.770;2022-07-17T16:40:10;29.20;94.30
54178;DHT22;40085;53.004;6.770;2022-07-17T16:42:36;28.90;93.70
54178;DHT22;40085;53.004;6.770;2022-07-17T16:45:02;29.90;95.00
54178;DHT22;40085;53.004;6.770;2022-07-17T16:47:28;31.00;94.50
54178;DHT22;40085;53.004;6.770;2022-07-17T16:49:54;32.10;92.80
54178;DHT22;40085;53.004;6.770;2022-07-17T16:52:19;33.30;92.90
54178;DHT22;40085;53.004;6.770;2022-07-17T16:54:45;33.10;90.20
54178;DHT22;40085;53.004;6.770;2022-07-17T16:57:11;33.50;90.20
54178;DHT22;40085;53.004;6.770;2022-07-17T16:59:37;33.90;86.50
54178;DHT22;40085;53.004;6.770;2022-07-17T17:02:02;33.90;85.90
54178;DHT22;40085;53.004;6.770;2022-07-17T17:04:28;34.70;82.90
54178;DHT22;40085;53.004;6.770;2022-07-17T17:06:54;35.10;82.60
54178;DHT22;40085;53.004;6.770;2022-07-17T17:09:20;35.50;80.00
54178;DHT22;40085;53.004;6.770;2022-07-17T17:11:45;35.60;78.50
54178;DHT22;40085;53.004;6.770;2022-07-17T17:14:11;35.90;75.80
54178;DHT22;40085;53.004;6.770;2022-07-17T17:16:37;36.10;78.00
54178;DHT22;40085;53.004;6.770;2022-07-17T17:19:02;36.40;74.00
54178;DHT22;40085;53.004;6.770;2022-07-17T17:21:28;36.40;73.30
54178;DHT22;40085;53.004;6.770;2022-07-17T17:23:54;35.70;72.80
54178;DHT22;40085;53.004;6.770;2022-07-17T17:26:20;35.60;72.20
54178;DHT22;40085;53.004;6.770;2022-07-17T17:28:46;35.60;74.20
54178;DHT22;40085;53.004;6.770;2022-07-17T17:31:12;35.40;70.50
54178;DHT22;40085;53.004;6.770;2022-07-17T17:33:38;34.90;69.20
54178;DHT22;40085;53.004;6.770;2022-07-17T17:36:04;34.10;71.60
54178;DHT22;40085;53.004;6.770;2022-07-17T17:38:30;33.20;73.00
54178;DHT22;40085;53.004;6.770;2022-07-17T17:41:00;31.90;73.40
54178;DHT22;40085;53.004;6.770;2022-07-17T17:43:26;31.60;72.80
54178;DHT22;40085;53.004;6.770;2022-07-17T17:45:54;30.70;75.40
54178;DHT22;40085;53.004;6.770;2022-07-17T17:48:20;30.20;74.60
54178;DHT22;40085;53.004;6.770;2022-07-17T17:50:46;29.60;75.30
54178;DHT22;40085;53.004;6.770;2022-07-17T17:53:12;29.00;77.00
54178;DHT22;40085;53.004;6.770;2022-07-17T17:55:38;28.20;76.80
54178;DHT22;40085;53.004;6.770;2022-07-17T17:58:03;27.60;78.60
54178;DHT22;40085;53.004;6.770;2022-07-17T18:00:29;27.00;79.30
54178;DHT22;40085;53.004;6.770;2022-07-17T18:02:55;26.50;81.20
54178;DHT22;40085;53.004;6.770;2022-07-17T18:05:20;26.00;80.70
54178;DHT22;40085;53.004;6.770;2022-07-17T18:07:46;25.70;82.10
54178;DHT22;40085;53.004;6.770;2022-07-17T18:10:12;25.50;82.50
54178;DHT22;40085;53.004;6.770;2022-07-17T18:12:39;25.30;84.10
54178;DHT22;40085;53.004;6.770;2022-07-17T18:15:06;25.10;84.10
54178;DHT22;40085;53.004;6.770;2022-07-17T18:17:32;24.90;84.80
54178;DHT22;40085;53.004;6.770;2022-07-17T18:19:58;24.70;84.80
54178;DHT22;40085;53.004;6.770;2022-07-17T18:22:24;24.60;88.20
54178;DHT22;40085;53.004;6.770;2022-07-17T18:24:50;24.30;88.70
54178;DHT22;40085;53.004;6.770;2022-07-17T18:27:15;24.10;87.90
54178;DHT22;40085;53.004;6.770;2022-07-17T18:29:41;23.90;88.00
54178;DHT22;40085;53.004;6.770;2022-07-17T18:32:07;23.80;89.10
54178;DHT22;40085;53.004;6.770;2022-07-17T18:34:33;23.50;88.90
54178;DHT22;40085;53.004;6.770;2022-07-17T18:36:59;23.40;89.70
54178;DHT22;40085;53.004;6.770;2022-07-17T18:39:25;23.20;90.50
54178;DHT22;40085;53.004;6.770;2022-07-17T18:41:51;23.20;90.80
54178;DHT22;40085;53.004;6.770;2022-07-17T18:44:16;23.00;90.70
54178;DHT22;40085;53.004;6.770;2022-07-17T18:46:42;22.90;91.50
54178;DHT22;40085;53.004;6.770;2022-07-17T18:49:08;22.80;91.50
54178;DHT22;40085;53.004;6.770;2022-07-17T18:51:34;22.80;92.10
54178;DHT22;40085;53.004;6.770;2022-07-17T18:53:59;22.70;92.10
54178;DHT22;40085;53.004;6.770;2022-07-17T18:56:25;22.60;92.60
54178;DHT22;40085;53.004;6.770;2022-07-17T18:58:51;22.50;94.20
54178;DHT22;40085;53.004;6.770;2022-07-17T19:01:16;22.40;94.00
54178;DHT22;40085;53.004;6.770;2022-07-17T19:03:42;22.40;94.10
54178;DHT22;40085;53.004;6.770;2022-07-17T19:06:08;22.20;94.30
54178;DHT22;40085;53.004;6.770;2022-07-17T19:08:35;22.20;94.80
54178;DHT22;40085;53.004;6.770;2022-07-17T19:11:02;22.10;95.20
54178;DHT22;40085;53.004;6.770;2022-07-17T19:13:27;22.00;95.10
54178;DHT22;40085;53.004;6.770;2022-07-17T19:15:53;21.70;94.50
54178;DHT22;40085;53.004;6.770;2022-07-17T19:18:19;21.90;96.40
54178;DHT22;40085;53.004;6.770;2022-07-17T19:20:44;21.80;96.40
54178;DHT22;40085;53.004;6.770;2022-07-17T19:23:10;21.80;96.30
54178;DHT22;40085;53.004;6.770;2022-07-17T19:25:37;21.70;96.80